createdAt,value
2023-06-04T00:02:01.715Z,74.70
2023-06-04T00:04:30.176Z,74.68
2023-06-04T00:06:58.228Z,74.62
2023-06-04T00:09:26.234Z,74.54
2023-06-04T00:11:54.276Z,74.39
2023-06-04T00:14:22.412Z,74.27
2023-06-04T00:16:50.796Z,73.27
2023-06-04T00:19:18.957Z,72.58
2023-06-04T00:21:47.074Z,72.69
2023-06-04T00:24:15.545Z,72.72
2023-06-04T00:26:43.788Z,72.71
2023-06-04T00:29:11.857Z,72.91
2023-06-04T00:31:39.977Z,72.67
2023-06-04T00:34:08.208Z,72.77
2023-06-04T00:36:36.384Z,72.96
2023-06-04T00:39:04.410Z,73.29
2023-06-04T00:41:32.480Z,73.83
2023-06-04T00:44:02.990Z,74.20
2023-06-04T00:46:32.576Z,74.35
2023-06-04T00:49:00.949Z,74.49
2023-06-04T00:51:32.183Z,74.90
2023-06-04T00:54:02.774Z,75.11
2023-06-04T00:56:31.212Z,75.18
2023-06-04T00:58:59.249Z,75.28
2023-06-04T01:01:37.402Z,75.40
2023-06-04T01:04:10.265Z,75.82
2023-06-04T01:06:45.325Z,75.82
2023-06-04T01:09:15.362Z,75.77
2023-06-04T01:11:43.590Z,75.92
2023-06-04T01:14:11.767Z,75.78
2023-06-04T01:16:43.032Z,75.76
2023-06-04T01:19:31.350Z,75.70
2023-06-04T01:22:05.397Z,75.91
2023-06-04T01:24:39.738Z,75.93
2023-06-04T01:27:09.924Z,75.92
2023-06-04T01:29:38.146Z,75.75
2023-06-04T01:32:06.974Z,75.54
2023-06-04T01:34:47.929Z,75.47
2023-06-04T01:37:17.628Z,75.45
2023-06-04T01:39:45.861Z,75.02
2023-06-04T01:42:14.084Z,74.60
2023-06-04T01:44:43.514Z,74.34
2023-06-04T01:47:11.689Z,74.43
2023-06-04T01:49:41.582Z,74.52
2023-06-04T01:52:09.566Z,74.54
2023-06-04T01:54:39.229Z,74.15
2023-06-04T01:57:07.859Z,73.80
2023-06-04T01:59:37.558Z,73.43
2023-06-04T02:02:06.270Z,73.46
2023-06-04T02:04:37.721Z,73.45
2023-06-04T02:07:06.549Z,73.49
2023-06-04T02:09:34.665Z,73.89
2023-06-04T02:12:03.155Z,74.13
2023-06-04T02:14:31.806Z,74.22
2023-06-04T02:16:59.992Z,74.08
2023-06-04T02:19:28.346Z,74.46
2023-06-04T02:21:57.289Z,74.26
2023-06-04T02:24:25.564Z,74.33
2023-06-04T02:26:53.534Z,74.26
2023-06-04T02:29:21.918Z,74.68
2023-06-04T02:31:50.025Z,74.72
2023-06-04T02:34:19.080Z,74.74
2023-06-04T02:36:49.474Z,75.16
2023-06-04T02:39:19.220Z,74.89
2023-06-04T02:41:47.698Z,74.64
2023-06-04T02:44:15.984Z,74.49
2023-06-04T02:46:44.990Z,74.37
2023-06-04T02:49:17.650Z,74.36
2023-06-04T02:51:46.140Z,74.44
2023-06-04T02:54:14.111Z,74.26
2023-06-04T02:56:42.124Z,74.24
2023-06-04T02:59:14.311Z,74.28
2023-06-04T03:01:43.175Z,74.73
2023-06-04T03:04:16.734Z,74.97
2023-06-04T03:06:48.509Z,75.25
2023-06-04T03:09:16.756Z,74.99
2023-06-04T03:11:44.798Z,74.94
2023-06-04T03:14:13.306Z,75.01
2023-06-04T03:16:42.430Z,75.33
2023-06-04T03:19:12.833Z,75.18
2023-06-04T03:21:41.410Z,74.61
2023-06-04T03:24:09.470Z,74.60
2023-06-04T03:26:37.494Z,74.61
2023-06-04T03:29:05.590Z,74.42
2023-06-04T03:31:34.094Z,74.65
2023-06-04T03:34:02.711Z,75.37
2023-06-04T03:36:39.389Z,75.76
2023-06-04T03:39:08.008Z,75.61
2023-06-04T03:41:36.549Z,75.91
2023-06-04T03:44:04.910Z,75.90
2023-06-04T03:46:35.084Z,75.48
2023-06-04T03:49:04.143Z,75.99
2023-06-04T03:51:33.989Z,75.79
2023-06-04T03:54:03.231Z,73.84
2023-06-04T03:56:32.804Z,73.10
2023-06-04T03:59:01.940Z,73.63
2023-06-04T04:01:30.423Z,75.26
2023-06-04T04:03:58.731Z,76.18
2023-06-04T04:06:27.494Z,74.32
2023-06-04T04:08:56.514Z,74.16
2023-06-04T04:11:24.969Z,74.96
2023-06-04T04:13:53.046Z,74.78
2023-06-04T04:16:21.865Z,74.68
2023-06-04T04:18:50.208Z,72.24
2023-06-04T04:21:18.277Z,72.12
2023-06-04T04:23:48.058Z,73.15
2023-06-04T04:26:18.178Z,73.80
2023-06-04T04:28:48.220Z,74.46
2023-06-04T04:31:16.700Z,73.93
2023-06-04T04:33:45.621Z,73.73
2023-06-04T04:36:14.122Z,73.83
2023-06-04T04:38:55.532Z,73.73
2023-06-04T04:41:27.354Z,73.07
2023-06-04T04:44:06.018Z,73.32
2023-06-04T04:46:34.548Z,72.50
2023-06-04T04:49:03.619Z,72.42
2023-06-04T04:51:31.997Z,72.55
2023-06-04T04:54:03.868Z,73.56
2023-06-04T04:56:36.840Z,74.14
2023-06-04T04:59:05.823Z,74.17
2023-06-04T05:01:34.224Z,74.31
2023-06-04T05:04:04.863Z,74.38
2023-06-04T05:06:34.355Z,74.29
2023-06-04T05:09:02.932Z,74.34
2023-06-04T05:11:31.453Z,74.37
2023-06-04T05:13:59.588Z,74.61
2023-06-04T05:16:29.092Z,74.03
2023-06-04T05:18:57.979Z,73.32
2023-06-04T05:21:27.798Z,72.87
2023-06-04T05:24:00.303Z,73.32
2023-06-04T05:26:31.729Z,73.72
2023-06-04T05:29:02.636Z,72.66
2023-06-04T05:31:37.962Z,71.96
2023-06-04T05:34:06.701Z,71.55
2023-06-04T05:36:36.692Z,70.35
2023-06-04T05:39:07.660Z,70.37
2023-06-04T05:41:42.311Z,69.96
2023-06-04T05:44:10.815Z,70.09
2023-06-04T05:46:39.036Z,70.90
2023-06-04T05:49:07.406Z,70.50
2023-06-04T05:51:37.146Z,70.08
2023-06-04T05:54:05.396Z,68.53
2023-06-04T05:56:34.797Z,69.51
2023-06-04T05:59:03.586Z,67.95
2023-06-04T06:01:31.516Z,66.50
2023-06-04T06:03:59.749Z,66.76
2023-06-04T06:06:29.831Z,67.75
2023-06-04T06:08:59.383Z,68.38
2023-06-04T06:11:28.690Z,68.09
2023-06-04T06:13:57.663Z,66.87
2023-06-04T06:16:25.910Z,67.53
2023-06-04T06:18:55.049Z,69.17
2023-06-04T06:21:23.498Z,69.76
2023-06-04T06:23:53.022Z,69.11
2023-06-04T06:26:21.386Z,68.24
2023-06-04T06:28:52.374Z,67.42
2023-06-04T06:31:21.369Z,68.39
2023-06-04T06:33:49.473Z,67.30
2023-06-04T06:36:20.097Z,66.70
2023-06-04T06:38:48.347Z,66.41
2023-06-04T06:41:16.436Z,66.61
2023-06-04T06:43:44.476Z,67.10
2023-06-04T06:46:12.656Z,66.86
2023-06-04T06:48:42.046Z,66.03
2023-06-04T06:51:10.198Z,66.83
2023-06-04T06:53:38.177Z,66.65
2023-06-04T06:56:07.158Z,66.31
2023-06-04T06:58:35.196Z,65.51
2023-06-04T07:01:03.541Z,65.03
2023-06-04T07:03:32.458Z,64.21
2023-06-04T07:06:00.881Z,63.24
2023-06-04T07:08:29.575Z,64.59
2023-06-04T07:10:57.941Z,67.30
2023-06-04T07:13:26.570Z,66.46
2023-06-04T07:15:55.002Z,62.67
2023-06-04T07:18:23.221Z,62.10
2023-06-04T07:20:55.032Z,62.30
2023-06-04T07:23:24.462Z,62.47
2023-06-04T07:25:52.870Z,62.08
2023-06-04T07:28:21.072Z,60.35
2023-06-04T07:30:49.268Z,60.05
2023-06-04T07:33:17.568Z,59.23
2023-06-04T07:35:45.738Z,58.04
2023-06-04T07:38:13.724Z,56.40
2023-06-04T07:40:41.861Z,56.89
2023-06-04T07:43:10.135Z,57.25
2023-06-04T07:45:38.209Z,57.96
2023-06-04T07:48:06.415Z,56.91
2023-06-04T07:50:36.594Z,57.70
2023-06-04T07:53:07.781Z,58.17
2023-06-04T07:55:36.394Z,57.91
2023-06-04T07:58:06.319Z,57.70
2023-06-04T08:00:35.877Z,56.98
2023-06-04T08:03:04.509Z,57.96
2023-06-04T08:05:32.643Z,58.59
2023-06-04T08:08:00.816Z,59.50
2023-06-04T08:10:28.824Z,59.56
2023-06-04T08:12:57.745Z,59.54
2023-06-04T08:15:25.704Z,58.77
2023-06-04T08:17:53.974Z,57.01
2023-06-04T08:20:22.389Z,57.64
2023-06-04T08:22:51.130Z,57.48
2023-06-04T08:25:19.229Z,59.08
2023-06-04T08:27:47.414Z,57.63
2023-06-04T08:30:15.582Z,57.04
2023-06-04T08:32:43.524Z,55.68
2023-06-04T08:35:11.923Z,55.55
2023-06-04T08:37:41.226Z,56.19
2023-06-04T08:40:10.495Z,54.83
2023-06-04T08:42:43.806Z,54.16
2023-06-04T08:45:17.771Z,53.37
2023-06-04T08:47:50.506Z,53.44
2023-06-04T08:50:21.077Z,52.54
2023-06-04T08:52:53.735Z,52.76
2023-06-04T08:55:22.701Z,53.00
2023-06-04T08:57:55.003Z,52.86
2023-06-04T09:00:23.884Z,51.94
2023-06-04T09:02:52.339Z,52.27
2023-06-04T09:05:23.834Z,52.39
2023-06-04T09:08:00.553Z,52.25
2023-06-04T09:10:31.371Z,52.66
2023-06-04T09:13:03.803Z,52.84
2023-06-04T09:15:31.726Z,52.04
2023-06-04T09:18:00.098Z,53.02
2023-06-04T09:20:29.581Z,53.24
2023-06-04T09:22:59.376Z,51.35
2023-06-04T09:25:29.164Z,50.44
2023-06-04T09:28:07.078Z,50.98
2023-06-04T09:30:35.086Z,49.53
2023-06-04T09:33:10.036Z,50.10
2023-06-04T09:35:38.362Z,50.76
2023-06-04T09:38:06.746Z,52.15
2023-06-04T09:40:39.705Z,51.79
2023-06-04T09:43:09.425Z,52.10
2023-06-04T09:45:37.470Z,51.03
2023-06-04T09:48:09.342Z,50.53
2023-06-04T09:50:40.554Z,51.35
2023-06-04T09:53:21.539Z,48.70
2023-06-04T09:55:59.720Z,48.09
2023-06-04T09:58:29.358Z,48.77
2023-06-04T10:01:00.338Z,48.03
2023-06-04T10:03:34.224Z,48.50
2023-06-04T10:06:07.168Z,49.42
2023-06-04T10:08:35.846Z,48.80
2023-06-04T10:11:07.026Z,45.77
2023-06-04T10:14:03.294Z,48.04
2023-06-04T10:16:34.865Z,48.30
2023-06-04T10:19:03.630Z,47.95
2023-06-04T10:21:36.083Z,48.72
2023-06-04T10:24:05.047Z,46.23
2023-06-04T10:26:36.492Z,45.93
2023-06-04T10:29:06.914Z,46.09
2023-06-04T10:31:35.091Z,46.70
2023-06-04T10:34:04.360Z,48.39
2023-06-04T10:36:32.536Z,48.32
2023-06-04T10:39:00.934Z,48.24
2023-06-04T10:41:29.901Z,48.83
2023-06-04T10:44:02.977Z,49.60
2023-06-04T10:46:44.174Z,49.84
2023-06-04T10:49:13.244Z,47.69
2023-06-04T10:51:42.333Z,49.35
2023-06-04T10:54:10.742Z,47.08
2023-06-04T10:56:39.256Z,46.40
2023-06-04T10:59:18.355Z,46.56
2023-06-04T11:01:47.332Z,45.77
2023-06-04T11:04:27.159Z,46.41
2023-06-04T11:07:11.479Z,45.88
2023-06-04T11:09:49.622Z,46.58
2023-06-04T11:12:17.833Z,46.71
2023-06-04T11:14:59.620Z,45.02
2023-06-04T11:17:28.142Z,46.13
2023-06-04T11:19:56.833Z,45.66
2023-06-04T11:22:26.090Z,45.79
2023-06-04T11:25:01.346Z,45.85
2023-06-04T11:27:36.830Z,46.26
2023-06-04T11:30:08.856Z,46.24
2023-06-04T11:32:37.095Z,45.92
2023-06-04T11:35:07.717Z,45.53
2023-06-04T11:37:36.458Z,46.18
2023-06-04T11:40:19.363Z,44.26
2023-06-04T11:42:51.432Z,44.92
2023-06-04T11:45:21.543Z,45.06
2023-06-04T11:47:53.258Z,44.51
2023-06-04T11:50:22.450Z,45.68
2023-06-04T11:52:50.895Z,44.48
2023-06-04T11:55:19.342Z,44.46
2023-06-04T11:57:48.356Z,44.77
2023-06-04T12:00:18.618Z,44.18
2023-06-04T12:02:55.616Z,43.65
2023-06-04T12:05:35.068Z,43.44
2023-06-04T12:08:09.301Z,41.43
2023-06-04T12:10:44.426Z,41.34
2023-06-04T12:13:12.845Z,42.33
2023-06-04T12:15:41.331Z,42.82
2023-06-04T12:18:11.203Z,43.77
2023-06-04T12:20:43.246Z,44.24
2023-06-04T12:23:22.329Z,44.52
2023-06-04T12:25:54.317Z,43.14
2023-06-04T12:28:22.544Z,42.95
2023-06-04T12:30:50.801Z,42.69
2023-06-04T12:33:19.329Z,42.99
2023-06-04T12:35:47.800Z,42.36
2023-06-04T12:38:15.823Z,44.39
2023-06-04T12:40:44.131Z,44.59
2023-06-04T12:43:12.410Z,44.54
2023-06-04T12:45:40.692Z,43.58
2023-06-04T12:48:08.682Z,42.74
2023-06-04T12:50:37.080Z,42.62
2023-06-04T12:53:05.023Z,42.37
2023-06-04T12:55:33.183Z,42.13
2023-06-04T12:58:01.697Z,43.04
2023-06-04T13:00:29.836Z,42.53
2023-06-04T13:02:57.824Z,41.86
2023-06-04T13:05:26.074Z,41.52
2023-06-04T13:07:54.053Z,41.63
2023-06-04T13:10:22.427Z,42.15
2023-06-04T13:12:50.584Z,41.40
2023-06-04T13:15:19.258Z,41.15
2023-06-04T13:17:47.498Z,41.34
2023-06-04T13:20:15.634Z,40.86
2023-06-04T13:22:45.211Z,38.98
2023-06-04T13:25:13.231Z,40.54
2023-06-04T13:27:41.615Z,40.03
2023-06-04T13:30:10.427Z,38.82
2023-06-04T13:32:38.693Z,40.69
2023-06-04T13:35:07.561Z,41.14
2023-06-04T13:37:35.723Z,41.05
2023-06-04T13:40:04.328Z,41.52
2023-06-04T13:42:32.477Z,42.68
2023-06-04T13:45:00.953Z,42.28
2023-06-04T13:47:29.152Z,42.12
2023-06-04T13:49:57.128Z,42.21
2023-06-04T13:52:25.162Z,42.22
2023-06-04T13:54:53.120Z,42.85
2023-06-04T13:57:21.619Z,42.65
2023-06-04T13:59:50.715Z,42.71
2023-06-04T14:02:19.197Z,43.29
2023-06-04T14:04:47.281Z,43.88
2023-06-04T14:07:15.447Z,44.22
2023-06-04T14:09:44.131Z,43.83
2023-06-04T14:12:12.341Z,43.70
2023-06-04T14:14:40.608Z,43.58
2023-06-04T14:17:09.166Z,42.94
2023-06-04T14:19:37.156Z,42.66
2023-06-04T14:22:05.635Z,42.92
2023-06-04T14:24:34.388Z,42.64
2023-06-04T14:27:02.590Z,42.17
2023-06-04T14:29:31.160Z,41.57
2023-06-04T14:32:00.022Z,41.39
2023-06-04T14:34:28.222Z,41.84
2023-06-04T14:36:56.366Z,42.33
2023-06-04T14:39:24.522Z,43.40
2023-06-04T14:41:53.496Z,43.61
2023-06-04T14:44:22.360Z,42.96
2023-06-04T14:46:52.282Z,43.04
2023-06-04T14:49:20.613Z,44.26
2023-06-04T14:51:48.954Z,43.34
2023-06-04T14:54:17.424Z,44.11
2023-06-04T14:56:45.435Z,44.51
2023-06-04T14:59:13.500Z,43.57
2023-06-04T15:01:43.033Z,42.89
2023-06-04T15:04:11.414Z,43.17
2023-06-04T15:06:39.845Z,42.70
2023-06-04T15:09:07.881Z,42.72
2023-06-04T15:11:35.851Z,43.64
2023-06-04T15:14:04.031Z,42.48
2023-06-04T15:16:32.302Z,42.47
2023-06-04T15:19:00.725Z,42.51
2023-06-04T15:21:29.159Z,42.24
2023-06-04T15:23:57.139Z,42.07
2023-06-04T15:26:26.128Z,41.87
2023-06-04T15:28:57.711Z,42.32
2023-06-04T15:31:26.290Z,42.77
2023-06-04T15:33:54.550Z,43.22
2023-06-04T15:36:22.714Z,43.33
2023-06-04T15:38:51.730Z,43.18
2023-06-04T15:41:22.620Z,43.59
2023-06-04T15:43:54.039Z,43.95
2023-06-04T15:46:26.522Z,43.92
2023-06-04T15:48:54.852Z,43.85
2023-06-04T15:51:23.075Z,44.06
2023-06-04T15:53:52.175Z,43.83
2023-06-04T15:56:20.396Z,44.42
2023-06-04T15:58:48.564Z,45.16
2023-06-04T16:01:16.948Z,44.34
2023-06-04T16:03:45.205Z,44.68
2023-06-04T16:06:13.396Z,45.12
2023-06-04T16:08:44.296Z,45.11
2023-06-04T16:11:12.406Z,44.63
2023-06-04T16:13:40.688Z,45.45
2023-06-04T16:16:09.492Z,46.77
2023-06-04T16:18:39.408Z,47.66
2023-06-04T16:21:07.366Z,49.31
2023-06-04T16:23:35.959Z,50.34
2023-06-04T16:26:04.120Z,51.23
2023-06-04T16:28:32.206Z,51.91
2023-06-04T16:31:00.301Z,52.37
2023-06-04T16:33:28.472Z,52.71
2023-06-04T16:35:56.470Z,53.31
2023-06-04T16:38:24.680Z,53.29
2023-06-04T16:40:53.467Z,54.26
2023-06-04T16:43:21.842Z,55.20
2023-06-04T16:45:50.124Z,54.26
2023-06-04T16:48:18.302Z,54.29
2023-06-04T16:50:46.390Z,54.73
2023-06-04T16:53:14.353Z,55.26
2023-06-04T16:55:42.514Z,55.42
2023-06-04T16:58:14.058Z,55.70
2023-06-04T17:00:42.406Z,56.10
2023-06-04T17:03:11.567Z,56.02
2023-06-04T17:05:40.036Z,56.17
2023-06-04T17:08:08.500Z,56.29
2023-06-04T17:10:36.540Z,57.13
2023-06-04T17:13:04.887Z,57.43
2023-06-04T17:15:32.938Z,58.27
2023-06-04T17:18:07.494Z,58.50
2023-06-04T17:20:35.824Z,58.55
2023-06-04T17:23:04.095Z,58.72
2023-06-04T17:25:33.832Z,59.26
2023-06-04T17:28:02.082Z,59.59
2023-06-04T17:30:30.287Z,59.86
2023-06-04T17:32:58.610Z,59.82
2023-06-04T17:35:26.976Z,59.70
2023-06-04T17:37:55.173Z,59.57
2023-06-04T17:40:25.115Z,59.79
2023-06-04T17:42:55.753Z,59.75
2023-06-04T17:45:23.906Z,59.42
2023-06-04T17:47:52.148Z,59.50
2023-06-04T17:50:20.724Z,60.33
2023-06-04T17:52:49.154Z,60.63
2023-06-04T17:55:17.632Z,60.62
2023-06-04T17:57:45.798Z,59.37
2023-06-04T18:00:15.628Z,59.09
2023-06-04T18:02:43.735Z,59.75
2023-06-04T18:05:11.973Z,61.01
2023-06-04T18:07:40.033Z,62.51
2023-06-04T18:10:08.917Z,64.12
2023-06-04T18:12:37.105Z,65.68
2023-06-04T18:15:06.213Z,69.57
2023-06-04T18:17:35.526Z,70.79
2023-06-04T18:20:04.091Z,72.63
2023-06-04T18:22:32.159Z,74.82
2023-06-04T18:25:00.995Z,76.28
2023-06-04T18:27:29.357Z,78.36
2023-06-04T18:29:57.691Z,79.65
2023-06-04T18:32:25.821Z,80.64
2023-06-04T18:34:53.803Z,80.94
2023-06-04T18:37:22.128Z,81.18
2023-06-04T18:39:50.387Z,79.75
2023-06-04T18:44:58.245Z,79.54
2023-06-04T18:47:27.200Z,82.25
2023-06-04T18:49:56.750Z,81.87
2023-06-04T18:52:25.576Z,81.30
2023-06-04T18:54:53.790Z,80.68
2023-06-04T18:57:22.005Z,80.61
2023-06-04T18:59:50.211Z,81.83
2023-06-04T19:02:18.242Z,80.88
2023-06-04T19:04:46.889Z,81.01
2023-06-04T19:07:15.055Z,80.02
2023-06-04T19:09:43.314Z,80.53
2023-06-04T19:12:11.499Z,80.01
2023-06-04T19:14:39.992Z,80.15
2023-06-04T19:17:08.562Z,80.12
2023-06-04T19:19:36.665Z,80.01
2023-06-04T19:22:04.997Z,80.40
2023-06-04T19:24:33.200Z,79.49
2023-06-04T19:27:01.496Z,79.39
2023-06-04T19:29:29.633Z,78.54
2023-06-04T19:31:57.843Z,78.61
2023-06-04T19:34:29.156Z,78.83
2023-06-04T19:36:57.330Z,79.18
2023-06-04T19:39:26.329Z,79.10
2023-06-04T19:41:54.703Z,78.90
2023-06-04T19:44:22.987Z,77.53
2023-06-04T19:46:51.338Z,77.47
2023-06-04T19:49:20.857Z,77.70
2023-06-04T19:51:49.454Z,77.94
2023-06-04T19:54:17.565Z,78.56
2023-06-04T19:56:45.898Z,78.28
2023-06-04T19:59:13.840Z,78.18
2023-06-04T20:01:42.257Z,78.48
2023-06-04T20:04:10.499Z,78.52
2023-06-04T20:06:39.409Z,78.43
2023-06-04T20:09:08.869Z,78.54
2023-06-04T20:11:37.098Z,78.39
2023-06-04T20:14:06.917Z,77.88
2023-06-04T20:16:35.014Z,77.86
2023-06-04T20:19:03.256Z,78.10
2023-06-04T20:21:33.971Z,78.05
2023-06-04T20:24:05.171Z,77.92
2023-06-04T20:26:34.280Z,78.45
2023-06-04T20:29:02.535Z,78.27
2023-06-04T20:31:30.618Z,79.13
2023-06-04T20:33:59.259Z,79.73
2023-06-04T20:36:28.914Z,79.57
2023-06-04T20:38:57.531Z,79.55
2023-06-04T20:41:26.161Z,80.05
2023-06-04T20:43:55.490Z,80.54
2023-06-04T20:46:23.914Z,80.59
2023-06-04T20:48:52.250Z,80.72
2023-06-04T20:51:21.250Z,81.36
2023-06-04T20:53:50.517Z,81.11
2023-06-04T20:56:18.565Z,80.98
2023-06-04T20:58:48.167Z,80.81
2023-06-04T21:01:16.517Z,80.68
2023-06-04T21:03:44.957Z,81.19
2023-06-04T21:06:13.205Z,81.18
2023-06-04T21:08:41.488Z,80.83
2023-06-04T21:11:09.695Z,80.78
2023-06-04T21:13:37.862Z,80.89
2023-06-04T21:16:06.164Z,81.47
2023-06-04T21:18:34.285Z,81.40
2023-06-04T21:21:02.663Z,81.01
2023-06-04T21:23:30.859Z,80.30
2023-06-04T21:25:59.112Z,79.94
2023-06-04T21:28:27.162Z,79.92
2023-06-04T21:30:55.356Z,79.89
2023-06-04T21:33:23.443Z,79.81
2023-06-04T21:35:51.709Z,79.32
2023-06-04T21:38:20.328Z,79.80
2023-06-04T21:40:48.311Z,80.22
2023-06-04T21:43:16.881Z,79.85
2023-06-04T21:45:45.862Z,79.74
2023-06-04T21:48:14.061Z,79.65
2023-06-04T21:50:42.294Z,79.83
2023-06-04T21:53:10.358Z,79.38
2023-06-04T21:55:38.350Z,78.94
2023-06-04T21:58:06.422Z,78.88
2023-06-04T22:00:34.877Z,78.91
2023-06-04T22:03:03.243Z,79.34
2023-06-04T22:05:31.663Z,79.21
2023-06-04T22:08:02.211Z,79.07
2023-06-04T22:10:30.392Z,78.96
2023-06-04T22:12:59.128Z,79.10
2023-06-04T22:15:27.196Z,79.25
2023-06-04T22:17:56.397Z,79.74
2023-06-04T22:20:26.426Z,79.73
2023-06-04T22:22:54.541Z,80.41
2023-06-04T22:25:22.502Z,80.64
2023-06-04T22:27:51.066Z,80.76
2023-06-04T22:30:19.000Z,80.85
2023-06-04T22:32:47.163Z,80.51
2023-06-04T22:35:15.458Z,80.64
2023-06-04T22:37:43.440Z,80.77
2023-06-04T22:40:12.080Z,80.06
2023-06-04T22:42:40.080Z,80.72
2023-06-04T22:45:09.378Z,81.74
2023-06-04T22:47:37.909Z,82.21
2023-06-04T22:50:07.159Z,82.73
2023-06-04T22:52:35.775Z,83.35
2023-06-04T22:55:05.470Z,82.86
2023-06-04T22:57:33.542Z,83.42
2023-06-04T23:00:01.913Z,83.27
2023-06-04T23:02:30.605Z,82.99
2023-06-04T23:04:58.843Z,82.56
2023-06-04T23:07:26.858Z,82.92
2023-06-04T23:09:54.933Z,82.66
2023-06-04T23:12:23.186Z,82.90
2023-06-04T23:14:51.168Z,82.68
2023-06-04T23:17:19.758Z,82.91
2023-06-04T23:19:47.940Z,83.81
2023-06-04T23:22:16.298Z,83.97
2023-06-04T23:24:44.577Z,83.87
2023-06-04T23:27:12.525Z,83.73
2023-06-04T23:29:40.923Z,83.66
2023-06-04T23:32:09.144Z,83.43
2023-06-04T23:34:37.226Z,83.39
2023-06-04T23:37:05.943Z,82.74
2023-06-04T23:39:34.045Z,83.01
2023-06-04T23:42:02.307Z,83.04
2023-06-04T23:44:30.351Z,82.23
2023-06-04T23:46:58.382Z,81.72
2023-06-04T23:49:26.504Z,81.43
2023-06-04T23:51:54.598Z,81.80
2023-06-04T23:54:23.165Z,81.71
2023-06-04T23:56:52.629Z,82.05
2023-06-04T23:59:20.937Z,81.77
